sensor_id;sensor_type;location;lat;lon;timestamp;P1;durP1;ratioP1;P2;durP2;ratioP2
6809;SDS011;3443;48.812;9.112;2022-12-29T00:01:51;0.93;;;0.85;;
6809;SDS011;3443;48.812;9.112;2022-12-29T00:04:17;0.75;;;0.73;;
6809;SDS011;3443;48.812;9.112;2022-12-29T00:06:43;1.75;;;0.60;;
6809;SDS011;3443;48.812;9.112;2022-12-29T00:09:10;1.25;;;0.60;;
6809;SDS011;3443;48.812;9.112;2022-12-29T00:11:37;2.05;;;0.95;;
6809;SDS011;3443;48.812;9.112;2022-12-29T00:14:02;1.08;;;0.60;;
6809;SDS011;3443;48.812;9.112;2022-12-29T00:16:47;0.70;;;0.60;;
6809;SDS011;3443;48.812;9.112;2022-12-29T00:19:12;2.90;;;0.68;;
6809;SDS011;3443;48.812;9.112;2022-12-29T00:21:57;0.63;;;0.60;;
6809;SDS011;3443;48.812;9.112;2022-12-29T00:24:42;2.55;;;0.50;;
6809;SDS011;3443;48.812;9.112;2022-12-29T00:27:19;0.73;;;0.60;;
6809;SDS011;3443;48.812;9.112;2022-12-29T00:30:25;1.00;;;0.60;;
6809;SDS011;3443;48.812;9.112;2022-12-29T00:33:12;2.05;;;0.68;;
6809;SDS011;3443;48.812;9.112;2022-12-29T00:35:59;1.60;;;0.60;;
6809;SDS011;3443;48.812;9.112;2022-12-29T00:38:29;2.35;;;0.75;;
6809;SDS011;3443;48.812;9.112;2022-12-29T00:41:16;1.27;;;0.60;;
6809;SDS011;3443;48.812;9.112;2022-12-29T00:44:00;0.65;;;0.60;;
6809;SDS011;3443;48.812;9.112;2022-12-29T00:46:36;2.25;;;0.70;;
6809;SDS011;3443;48.812;9.112;2022-12-29T00:49:03;1.90;;;0.75;;
6809;SDS011;3443;48.812;9.112;2022-12-29T00:51:47;0.50;;;0.50;;
6809;SDS011;3443;48.812;9.112;2022-12-29T00:54:13;1.02;;;0.65;;
6809;SDS011;3443;48.812;9.112;2022-12-29T00:56:39;1.98;;;0.52;;
6809;SDS011;3443;48.812;9.112;2022-12-29T00:59:06;2.53;;;0.57;;
6809;SDS011;3443;48.812;9.112;2022-12-29T01:01:33;1.45;;;0.68;;
6809;SDS011;3443;48.812;9.112;2022-12-29T01:04:00;1.85;;;0.68;;
6809;SDS011;3443;48.812;9.112;2022-12-29T01:06:25;1.10;;;0.70;;
6809;SDS011;3443;48.812;9.112;2022-12-29T01:08:51;1.05;;;0.60;;
6809;SDS011;3443;48.812;9.112;2022-12-29T01:11:35;2.35;;;0.65;;
6809;SDS011;3443;48.812;9.112;2022-12-29T01:14:01;0.47;;;0.43;;
6809;SDS011;3443;48.812;9.112;2022-12-29T01:16:27;0.30;;;0.30;;
6809;SDS011;3443;48.812;9.112;2022-12-29T01:18:52;2.15;;;0.65;;
6809;SDS011;3443;48.812;9.112;2022-12-29T01:21:18;1.08;;;0.30;;
6809;SDS011;3443;48.812;9.112;2022-12-29T01:23:44;2.13;;;0.50;;
6809;SDS011;3443;48.812;9.112;2022-12-29T01:26:13;2.50;;;0.50;;
6809;SDS011;3443;48.812;9.112;2022-12-29T01:28:40;0.57;;;0.52;;
6809;SDS011;3443;48.812;9.112;2022-12-29T01:31:10;0.57;;;0.30;;
6809;SDS011;3443;48.812;9.112;2022-12-29T01:33:37;0.93;;;0.57;;
6809;SDS011;3443;48.812;9.112;2022-12-29T01:36:04;0.93;;;0.40;;
6809;SDS011;3443;48.812;9.112;2022-12-29T01:38:35;1.67;;;0.43;;
6809;SDS011;3443;48.812;9.112;2022-12-29T01:41:02;0.80;;;0.40;;
6809;SDS011;3443;48.812;9.112;2022-12-29T01:43:41;1.80;;;0.60;;
6809;SDS011;3443;48.812;9.112;2022-12-29T01:46:29;1.67;;;0.40;;
6809;SDS011;3443;48.812;9.112;2022-12-29T01:51:38;0.50;;;0.50;;
6809;SDS011;3443;48.812;9.112;2022-12-29T01:54:09;1.40;;;0.68;;
6809;SDS011;3443;48.812;9.112;2022-12-29T01:56:41;0.60;;;0.60;;
6809;SDS011;3443;48.812;9.112;2022-12-29T01:59:08;1.55;;;0.45;;
6809;SDS011;3443;48.812;9.112;2022-12-29T02:01:40;0.77;;;0.47;;
6809;SDS011;3443;48.812;9.112;2022-12-29T02:04:06;0.40;;;0.40;;
6809;SDS011;3443;48.812;9.112;2022-12-29T02:06:38;0.73;;;0.50;;
6809;SDS011;3443;48.812;9.112;2022-12-29T02:09:10;0.40;;;0.40;;
6809;SDS011;3443;48.812;9.112;2022-12-29T02:11:35;1.35;;;0.38;;
6809;SDS011;3443;48.812;9.112;2022-12-29T02:14:04;2.92;;;0.60;;
6809;SDS011;3443;48.812;9.112;2022-12-29T02:35:30;0.30;;;0.30;;
6809;SDS011;3443;48.812;9.112;2022-12-29T02:41:06;1.40;;;0.50;;
6809;SDS011;3443;48.812;9.112;2022-12-29T02:46:19;0.40;;;0.40;;
6809;SDS011;3443;48.812;9.112;2022-12-29T02:54:41;1.00;;;0.40;;
6809;SDS011;3443;48.812;9.112;2022-12-29T02:59:50;0.85;;;0.40;;
6809;SDS011;3443;48.812;9.112;2022-12-29T03:09:53;0.55;;;0.38;;
6809;SDS011;3443;48.812;9.112;2022-12-29T03:15:39;0.73;;;0.40;;
6809;SDS011;3443;48.812;9.112;2022-12-29T03:18:47;3.03;;;0.75;;
6809;SDS011;3443;48.812;9.112;2022-12-29T03:21:25;0.43;;;0.40;;
6809;SDS011;3443;48.812;9.112;2022-12-29T03:24:19;0.60;;;0.50;;
6809;SDS011;3443;48.812;9.112;2022-12-29T03:26:53;1.27;;;0.40;;
6809;SDS011;3443;48.812;9.112;2022-12-29T03:29:23;0.30;;;0.30;;
6809;SDS011;3443;48.812;9.112;2022-12-29T03:31:51;2.08;;;0.50;;
6809;SDS011;3443;48.812;9.112;2022-12-29T03:34:18;1.05;;;0.30;;
6809;SDS011;3443;48.812;9.112;2022-12-29T03:36:53;0.68;;;0.38;;
6809;SDS011;3443;48.812;9.112;2022-12-29T03:39:27;0.47;;;0.40;;
6809;SDS011;3443;48.812;9.112;2022-12-29T03:42:03;0.45;;;0.45;;
6809;SDS011;3443;48.812;9.112;2022-12-29T03:44:39;0.45;;;0.45;;
6809;SDS011;3443;48.812;9.112;2022-12-29T03:47:09;1.80;;;0.68;;
6809;SDS011;3443;48.812;9.112;2022-12-29T03:49:35;1.08;;;0.40;;
6809;SDS011;3443;48.812;9.112;2022-12-29T03:52:01;2.20;;;0.45;;
6809;SDS011;3443;48.812;9.112;2022-12-29T03:54:26;2.85;;;0.40;;
6809;SDS011;3443;48.812;9.112;2022-12-29T03:56:52;0.70;;;0.40;;
6809;SDS011;3443;48.812;9.112;2022-12-29T03:59:17;0.60;;;0.30;;
6809;SDS011;3443;48.812;9.112;2022-12-29T04:01:43;1.50;;;0.57;;
6809;SDS011;3443;48.812;9.112;2022-12-29T04:04:09;1.35;;;0.60;;
6809;SDS011;3443;48.812;9.112;2022-12-29T04:06:34;0.40;;;0.40;;
6809;SDS011;3443;48.812;9.112;2022-12-29T04:09:00;3.60;;;0.57;;
6809;SDS011;3443;48.812;9.112;2022-12-29T04:11:26;0.30;;;0.30;;
6809;SDS011;3443;48.812;9.112;2022-12-29T04:13:51;1.77;;;0.40;;
6809;SDS011;3443;48.812;9.112;2022-12-29T04:16:17;1.08;;;0.40;;
6809;SDS011;3443;48.812;9.112;2022-12-29T04:18:43;1.25;;;0.38;;
6809;SDS011;3443;48.812;9.112;2022-12-29T04:21:08;0.60;;;0.52;;
6809;SDS011;3443;48.812;9.112;2022-12-29T04:23:36;1.10;;;0.40;;
6809;SDS011;3443;48.812;9.112;2022-12-29T04:26:02;0.32;;;0.32;;
6809;SDS011;3443;48.812;9.112;2022-12-29T04:28:31;0.50;;;0.30;;
6809;SDS011;3443;48.812;9.112;2022-12-29T04:30:56;0.50;;;0.50;;
6809;SDS011;3443;48.812;9.112;2022-12-29T04:33:22;1.58;;;0.60;;
6809;SDS011;3443;48.812;9.112;2022-12-29T04:35:48;0.82;;;0.70;;
6809;SDS011;3443;48.812;9.112;2022-12-29T04:38:14;0.40;;;0.40;;
6809;SDS011;3443;48.812;9.112;2022-12-29T04:40:40;0.50;;;0.50;;
6809;SDS011;3443;48.812;9.112;2022-12-29T04:43:07;0.80;;;0.40;;
6809;SDS011;3443;48.812;9.112;2022-12-29T04:45:32;2.03;;;0.50;;
6809;SDS011;3443;48.812;9.112;2022-12-29T04:47:58;4.25;;;0.50;;
6809;SDS011;3443;48.812;9.112;2022-12-29T04:50:24;1.33;;;0.55;;
6809;SDS011;3443;48.812;9.112;2022-12-29T04:52:49;0.50;;;0.50;;
6809;SDS011;3443;48.812;9.112;2022-12-29T04:55:15;0.50;;;0.50;;
6809;SDS011;3443;48.812;9.112;2022-12-29T04:57:40;1.27;;;0.52;;
6809;SDS011;3443;48.812;9.112;2022-12-29T05:00:06;0.82;;;0.50;;
6809;SDS011;3443;48.812;9.112;2022-12-29T05:02:33;2.15;;;0.68;;
6809;SDS011;3443;48.812;9.112;2022-12-29T05:04:59;0.52;;;0.52;;
6809;SDS011;3443;48.812;9.112;2022-12-29T05:07:25;1.40;;;0.60;;
6809;SDS011;3443;48.812;9.112;2022-12-29T05:09:51;1.17;;;0.60;;
6809;SDS011;3443;48.812;9.112;2022-12-29T05:12:16;1.77;;;0.40;;
6809;SDS011;3443;48.812;9.112;2022-12-29T05:14:42;1.08;;;0.73;;
6809;SDS011;3443;48.812;9.112;2022-12-29T05:17:07;1.85;;;0.50;;
6809;SDS011;3443;48.812;9.112;2022-12-29T05:19:33;1.40;;;0.60;;
6809;SDS011;3443;48.812;9.112;2022-12-29T05:21:58;1.05;;;0.55;;
6809;SDS011;3443;48.812;9.112;2022-12-29T05:24:24;1.88;;;0.77;;
6809;SDS011;3443;48.812;9.112;2022-12-29T05:26:50;1.65;;;0.50;;
6809;SDS011;3443;48.812;9.112;2022-12-29T05:29:15;0.50;;;0.50;;
6809;SDS011;3443;48.812;9.112;2022-12-29T05:31:41;1.00;;;0.55;;
6809;SDS011;3443;48.812;9.112;2022-12-29T05:34:06;0.50;;;0.50;;
6809;SDS011;3443;48.812;9.112;2022-12-29T05:36:33;0.57;;;0.55;;
6809;SDS011;3443;48.812;9.112;2022-12-29T05:38:59;0.50;;;0.50;;
6809;SDS011;3443;48.812;9.112;2022-12-29T05:41:24;2.38;;;0.95;;
6809;SDS011;3443;48.812;9.112;2022-12-29T05:43:50;0.40;;;0.40;;
6809;SDS011;3443;48.812;9.112;2022-12-29T05:46:16;0.80;;;0.80;;
6809;SDS011;3443;48.812;9.112;2022-12-29T05:48:41;2.70;;;0.77;;
6809;SDS011;3443;48.812;9.112;2022-12-29T05:51:07;1.20;;;0.70;;
6809;SDS011;3443;48.812;9.112;2022-12-29T05:53:32;1.08;;;0.73;;
6809;SDS011;3443;48.812;9.112;2022-12-29T05:55:58;0.50;;;0.50;;
6809;SDS011;3443;48.812;9.112;2022-12-29T05:58:24;0.80;;;0.60;;
6809;SDS011;3443;48.812;9.112;2022-12-29T06:00:49;1.13;;;1.00;;
6809;SDS011;3443;48.812;9.112;2022-12-29T06:03:15;0.90;;;0.88;;
6809;SDS011;3443;48.812;9.112;2022-12-29T06:05:41;0.63;;;0.60;;
6809;SDS011;3443;48.812;9.112;2022-12-29T06:08:06;0.60;;;0.60;;
6809;SDS011;3443;48.812;9.112;2022-12-29T06:10:32;1.00;;;0.60;;
6809;SDS011;3443;48.812;9.112;2022-12-29T06:12:57;0.80;;;0.60;;
6809;SDS011;3443;48.812;9.112;2022-12-29T06:15:23;3.55;;;0.70;;
6809;SDS011;3443;48.812;9.112;2022-12-29T06:17:48;1.75;;;0.63;;
6809;SDS011;3443;48.812;9.112;2022-12-29T06:20:14;0.60;;;0.60;;
6809;SDS011;3443;48.812;9.112;2022-12-29T06:22:40;1.20;;;0.55;;
6809;SDS011;3443;48.812;9.112;2022-12-29T06:25:05;1.25;;;0.60;;
6809;SDS011;3443;48.812;9.112;2022-12-29T06:27:31;0.60;;;0.60;;
6809;SDS011;3443;48.812;9.112;2022-12-29T06:29:57;2.08;;;0.60;;
6809;SDS011;3443;48.812;9.112;2022-12-29T06:32:22;2.03;;;0.70;;
6809;SDS011;3443;48.812;9.112;2022-12-29T06:34:48;0.80;;;0.80;;
6809;SDS011;3443;48.812;9.112;2022-12-29T06:37:13;0.57;;;0.50;;
6809;SDS011;3443;48.812;9.112;2022-12-29T06:39:39;1.50;;;0.65;;
6809;SDS011;3443;48.812;9.112;2022-12-29T06:42:05;1.23;;;0.70;;
6809;SDS011;3443;48.812;9.112;2022-12-29T06:44:30;0.65;;;0.65;;
6809;SDS011;3443;48.812;9.112;2022-12-29T06:46:56;1.27;;;0.80;;
6809;SDS011;3443;48.812;9.112;2022-12-29T06:49:22;0.55;;;0.55;;
6809;SDS011;3443;48.812;9.112;2022-12-29T06:51:48;0.70;;;0.70;;
6809;SDS011;3443;48.812;9.112;2022-12-29T06:54:13;0.75;;;0.75;;
6809;SDS011;3443;48.812;9.112;2022-12-29T06:56:39;2.17;;;0.70;;
6809;SDS011;3443;48.812;9.112;2022-12-29T06:59:05;0.90;;;0.80;;
6809;SDS011;3443;48.812;9.112;2022-12-29T07:01:30;1.13;;;0.77;;
6809;SDS011;3443;48.812;9.112;2022-12-29T07:03:56;1.55;;;0.60;;
6809;SDS011;3443;48.812;9.112;2022-12-29T07:06:22;1.00;;;0.55;;
6809;SDS011;3443;48.812;9.112;2022-12-29T07:08:48;0.70;;;0.70;;
6809;SDS011;3443;48.812;9.112;2022-12-29T07:11:13;3.20;;;0.60;;
6809;SDS011;3443;48.812;9.112;2022-12-29T07:13:39;0.95;;;0.50;;
6809;SDS011;3443;48.812;9.112;2022-12-29T07:16:06;2.33;;;0.50;;
6809;SDS011;3443;48.812;9.112;2022-12-29T07:18:32;2.42;;;0.60;;
6809;SDS011;3443;48.812;9.112;2022-12-29T07:20:57;0.63;;;0.63;;
6809;SDS011;3443;48.812;9.112;2022-12-29T07:23:23;1.00;;;0.70;;
6809;SDS011;3443;48.812;9.112;2022-12-29T07:25:48;0.80;;;0.80;;
6809;SDS011;3443;48.812;9.112;2022-12-29T07:28:14;1.38;;;0.88;;
6809;SDS011;3443;48.812;9.112;2022-12-29T07:30:40;0.93;;;0.70;;
6809;SDS011;3443;48.812;9.112;2022-12-29T07:33:05;0.95;;;0.60;;
6809;SDS011;3443;48.812;9.112;2022-12-29T07:35:32;0.55;;;0.50;;
6809;SDS011;3443;48.812;9.112;2022-12-29T07:37:59;0.80;;;0.80;;
6809;SDS011;3443;48.812;9.112;2022-12-29T07:40:24;0.50;;;0.50;;
6809;SDS011;3443;48.812;9.112;2022-12-29T07:42:50;0.80;;;0.80;;
6809;SDS011;3443;48.812;9.112;2022-12-29T07:45:15;2.20;;;0.80;;
6809;SDS011;3443;48.812;9.112;2022-12-29T07:47:41;0.75;;;0.60;;
6809;SDS011;3443;48.812;9.112;2022-12-29T07:50:07;1.65;;;0.50;;
6809;SDS011;3443;48.812;9.112;2022-12-29T07:52:32;0.95;;;0.57;;
6809;SDS011;3443;48.812;9.112;2022-12-29T07:54:58;0.95;;;0.60;;
6809;SDS011;3443;48.812;9.112;2022-12-29T07:57:23;1.55;;;0.52;;
6809;SDS011;3443;48.812;9.112;2022-12-29T07:59:49;1.25;;;0.52;;
6809;SDS011;3443;48.812;9.112;2022-12-29T08:02:14;1.05;;;0.60;;
6809;SDS011;3443;48.812;9.112;2022-12-29T08:04:40;0.43;;;0.43;;
6809;SDS011;3443;48.812;9.112;2022-12-29T08:07:05;0.95;;;0.70;;
6809;SDS011;3443;48.812;9.112;2022-12-29T08:09:31;0.40;;;0.40;;
6809;SDS011;3443;48.812;9.112;2022-12-29T08:11:57;0.85;;;0.57;;
6809;SDS011;3443;48.812;9.112;2022-12-29T08:14:22;1.30;;;0.60;;
6809;SDS011;3443;48.812;9.112;2022-12-29T08:16:48;0.60;;;0.60;;
6809;SDS011;3443;48.812;9.112;2022-12-29T08:19:13;0.88;;;0.50;;
6809;SDS011;3443;48.812;9.112;2022-12-29T08:21:39;2.92;;;0.65;;
6809;SDS011;3443;48.812;9.112;2022-12-29T08:24:05;1.98;;;0.60;;
6809;SDS011;3443;48.812;9.112;2022-12-29T08:26:31;0.88;;;0.60;;
6809;SDS011;3443;48.812;9.112;2022-12-29T08:28:57;1.55;;;0.55;;
6809;SDS011;3443;48.812;9.112;2022-12-29T08:31:23;1.27;;;0.70;;
6809;SDS011;3443;48.812;9.112;2022-12-29T08:33:48;0.55;;;0.55;;
6809;SDS011;3443;48.812;9.112;2022-12-29T08:36:14;0.82;;;0.60;;
6809;SDS011;3443;48.812;9.112;2022-12-29T08:38:40;0.60;;;0.60;;
6809;SDS011;3443;48.812;9.112;2022-12-29T08:41:05;1.23;;;0.40;;
6809;SDS011;3443;48.812;9.112;2022-12-29T08:43:31;1.50;;;0.55;;
6809;SDS011;3443;48.812;9.112;2022-12-29T08:45:57;0.95;;;0.70;;
6809;SDS011;3443;48.812;9.112;2022-12-29T08:48:23;0.75;;;0.70;;
6809;SDS011;3443;48.812;9.112;2022-12-29T08:50:49;0.73;;;0.63;;
6809;SDS011;3443;48.812;9.112;2022-12-29T08:53:15;1.40;;;0.47;;
6809;SDS011;3443;48.812;9.112;2022-12-29T08:55:41;1.95;;;0.57;;
6809;SDS011;3443;48.812;9.112;2022-12-29T08:58:07;1.85;;;0.60;;
6809;SDS011;3443;48.812;9.112;2022-12-29T09:00:32;0.55;;;0.55;;
6809;SDS011;3443;48.812;9.112;2022-12-29T09:02:58;1.80;;;0.68;;
6809;SDS011;3443;48.812;9.112;2022-12-29T09:05:23;0.50;;;0.50;;
6809;SDS011;3443;48.812;9.112;2022-12-29T09:07:49;0.70;;;0.68;;
6809;SDS011;3443;48.812;9.112;2022-12-29T09:10:14;2.25;;;0.63;;
6809;SDS011;3443;48.812;9.112;2022-12-29T09:12:40;0.73;;;0.60;;
6809;SDS011;3443;48.812;9.112;2022-12-29T09:15:06;0.95;;;0.60;;
6809;SDS011;3443;48.812;9.112;2022-12-29T09:17:32;3.55;;;0.80;;
6809;SDS011;3443;48.812;9.112;2022-12-29T09:20:11;2.17;;;1.10;;
6809;SDS011;3443;48.812;9.112;2022-12-29T09:22:38;0.60;;;0.60;;
6809;SDS011;3443;48.812;9.112;2022-12-29T09:25:04;2.38;;;0.80;;
6809;SDS011;3443;48.812;9.112;2022-12-29T09:27:30;0.77;;;0.70;;
6809;SDS011;3443;48.812;9.112;2022-12-29T09:29:56;0.85;;;0.85;;
6809;SDS011;3443;48.812;9.112;2022-12-29T09:32:22;0.40;;;0.40;;
6809;SDS011;3443;48.812;9.112;2022-12-29T09:34:47;1.95;;;0.73;;
6809;SDS011;3443;48.812;9.112;2022-12-29T09:37:13;0.88;;;0.70;;
6809;SDS011;3443;48.812;9.112;2022-12-29T09:39:39;1.48;;;0.73;;
6809;SDS011;3443;48.812;9.112;2022-12-29T09:42:12;1.25;;;0.50;;
6809;SDS011;3443;48.812;9.112;2022-12-29T09:47:09;0.82;;;0.60;;
6809;SDS011;3443;48.812;9.112;2022-12-29T09:49:45;2.17;;;0.50;;
6809;SDS011;3443;48.812;9.112;2022-12-29T09:52:21;2.58;;;1.00;;
6809;SDS011;3443;48.812;9.112;2022-12-29T09:54:56;0.80;;;0.77;;
6809;SDS011;3443;48.812;9.112;2022-12-29T09:57:42;0.93;;;0.80;;
6809;SDS011;3443;48.812;9.112;2022-12-29T10:03:48;0.60;;;0.60;;
6809;SDS011;3443;48.812;9.112;2022-12-29T10:06:24;1.13;;;0.38;;
6809;SDS011;3443;48.812;9.112;2022-12-29T10:17:42;1.20;;;0.85;;
6809;SDS011;3443;48.812;9.112;2022-12-29T10:23:29;1.27;;;0.90;;
6809;SDS011;3443;48.812;9.112;2022-12-29T10:25:59;0.75;;;0.75;;
6809;SDS011;3443;48.812;9.112;2022-12-29T10:31:00;0.60;;;0.60;;
6809;SDS011;3443;48.812;9.112;2022-12-29T10:33:34;1.42;;;0.88;;
6809;SDS011;3443;48.812;9.112;2022-12-29T10:36:10;1.88;;;0.80;;
6809;SDS011;3443;48.812;9.112;2022-12-29T10:38:48;2.60;;;0.80;;
6809;SDS011;3443;48.812;9.112;2022-12-29T10:41:25;1.58;;;0.60;;
6809;SDS011;3443;48.812;9.112;2022-12-29T10:43:57;1.05;;;0.60;;
6809;SDS011;3443;48.812;9.112;2022-12-29T10:46:25;0.90;;;0.60;;
6809;SDS011;3443;48.812;9.112;2022-12-29T10:48:54;0.50;;;0.50;;
6809;SDS011;3443;48.812;9.112;2022-12-29T10:51:21;0.90;;;0.65;;
6809;SDS011;3443;48.812;9.112;2022-12-29T10:54:03;1.42;;;0.73;;
6809;SDS011;3443;48.812;9.112;2022-12-29T10:56:34;0.73;;;0.50;;
6809;SDS011;3443;48.812;9.112;2022-12-29T10:59:10;0.80;;;0.57;;
6809;SDS011;3443;48.812;9.112;2022-12-29T11:07:29;0.65;;;0.65;;
6809;SDS011;3443;48.812;9.112;2022-12-29T11:10:15;0.73;;;0.60;;
6809;SDS011;3443;48.812;9.112;2022-12-29T11:12:41;1.88;;;0.60;;
6809;SDS011;3443;48.812;9.112;2022-12-29T11:15:24;2.92;;;0.68;;
6809;SDS011;3443;48.812;9.112;2022-12-29T11:17:50;1.25;;;0.70;;
6809;SDS011;3443;48.812;9.112;2022-12-29T11:20:31;0.47;;;0.47;;
6809;SDS011;3443;48.812;9.112;2022-12-29T11:23:03;0.57;;;0.57;;
6809;SDS011;3443;48.812;9.112;2022-12-29T11:25:30;0.63;;;0.43;;
6809;SDS011;3443;48.812;9.112;2022-12-29T11:27:57;1.13;;;0.65;;
6809;SDS011;3443;48.812;9.112;2022-12-29T11:30:30;2.05;;;0.60;;
6809;SDS011;3443;48.812;9.112;2022-12-29T11:32:57;3.30;;;0.80;;
6809;SDS011;3443;48.812;9.112;2022-12-29T11:35:30;1.95;;;0.50;;
6809;SDS011;3443;48.812;9.112;2022-12-29T11:37:56;1.20;;;0.60;;
6809;SDS011;3443;48.812;9.112;2022-12-29T11:40:23;0.60;;;0.50;;
6809;SDS011;3443;48.812;9.112;2022-12-29T11:45:18;0.95;;;0.50;;
6809;SDS011;3443;48.812;9.112;2022-12-29T11:47:52;0.50;;;0.20;;
6809;SDS011;3443;48.812;9.112;2022-12-29T11:50:30;0.98;;;0.25;;
6809;SDS011;3443;48.812;9.112;2022-12-29T11:52:58;2.00;;;0.40;;
6809;SDS011;3443;48.812;9.112;2022-12-29T11:55:25;3.97;;;0.80;;
6809;SDS011;3443;48.812;9.112;2022-12-29T11:57:53;1.13;;;0.50;;
6809;SDS011;3443;48.812;9.112;2022-12-29T12:00:22;1.17;;;0.50;;
6809;SDS011;3443;48.812;9.112;2022-12-29T12:02:52;0.77;;;0.75;;
6809;SDS011;3443;48.812;9.112;2022-12-29T12:05:28;1.85;;;0.55;;
6809;SDS011;3443;48.812;9.112;2022-12-29T12:10:41;1.75;;;0.85;;
6809;SDS011;3443;48.812;9.112;2022-12-29T12:13:17;1.58;;;0.77;;
6809;SDS011;3443;48.812;9.112;2022-12-29T12:16:12;1.48;;;0.90;;
6809;SDS011;3443;48.812;9.112;2022-12-29T12:21:15;0.68;;;0.68;;
6809;SDS011;3443;48.812;9.112;2022-12-29T12:26:29;2.40;;;1.02;;
6809;SDS011;3443;48.812;9.112;2022-12-29T12:34:04;0.68;;;0.60;;
6809;SDS011;3443;48.812;9.112;2022-12-29T12:44:52;2.35;;;0.60;;
6809;SDS011;3443;48.812;9.112;2022-12-29T12:58:50;1.55;;;0.80;;
6809;SDS011;3443;48.812;9.112;2022-12-29T13:01:38;0.70;;;0.70;;
6809;SDS011;3443;48.812;9.112;2022-12-29T13:04:39;0.65;;;0.65;;
6809;SDS011;3443;48.812;9.112;2022-12-29T13:10:24;1.63;;;0.90;;
6809;SDS011;3443;48.812;9.112;2022-12-29T13:12:53;0.80;;;0.80;;
6809;SDS011;3443;48.812;9.112;2022-12-29T13:15:45;1.90;;;0.70;;
6809;SDS011;3443;48.812;9.112;2022-12-29T13:18:22;0.60;;;0.60;;
6809;SDS011;3443;48.812;9.112;2022-12-29T13:21:24;2.15;;;0.63;;
6809;SDS011;3443;48.812;9.112;2022-12-29T13:24:17;1.02;;;0.52;;
6809;SDS011;3443;48.812;9.112;2022-12-29T13:26:52;2.22;;;0.80;;
6809;SDS011;3443;48.812;9.112;2022-12-29T13:29:58;1.00;;;0.90;;
6809;SDS011;3443;48.812;9.112;2022-12-29T13:32:40;2.05;;;0.70;;
6809;SDS011;3443;48.812;9.112;2022-12-29T13:35:23;0.70;;;0.70;;
6809;SDS011;3443;48.812;9.112;2022-12-29T13:38:00;1.45;;;0.60;;
6809;SDS011;3443;48.812;9.112;2022-12-29T13:40:49;0.57;;;0.57;;
6809;SDS011;3443;48.812;9.112;2022-12-29T13:43:22;0.75;;;0.75;;
6809;SDS011;3443;48.812;9.112;2022-12-29T13:45:50;0.63;;;0.57;;
6809;SDS011;3443;48.812;9.112;2022-12-29T13:48:34;0.60;;;0.60;;
6809;SDS011;3443;48.812;9.112;2022-12-29T13:51:03;1.48;;;0.70;;
6809;SDS011;3443;48.812;9.112;2022-12-29T13:53:37;0.88;;;0.70;;
6809;SDS011;3443;48.812;9.112;2022-12-29T13:56:15;0.85;;;0.70;;
6809;SDS011;3443;48.812;9.112;2022-12-29T14:01:42;3.15;;;0.77;;
6809;SDS011;3443;48.812;9.112;2022-12-29T14:04:15;0.70;;;0.70;;
6809;SDS011;3443;48.812;9.112;2022-12-29T14:06:56;1.00;;;1.00;;
6809;SDS011;3443;48.812;9.112;2022-12-29T14:11:56;2.80;;;0.75;;
6809;SDS011;3443;48.812;9.112;2022-12-29T14:14:22;1.77;;;0.88;;
6809;SDS011;3443;48.812;9.112;2022-12-29T14:16:50;1.27;;;0.93;;
6809;SDS011;3443;48.812;9.112;2022-12-29T14:19:24;1.80;;;0.70;;
6809;SDS011;3443;48.812;9.112;2022-12-29T14:21:55;0.70;;;0.70;;
6809;SDS011;3443;48.812;9.112;2022-12-29T14:24:28;1.85;;;0.95;;
6809;SDS011;3443;48.812;9.112;2022-12-29T14:34:57;0.70;;;0.70;;
6809;SDS011;3443;48.812;9.112;2022-12-29T14:37:27;2.40;;;0.90;;
6809;SDS011;3443;48.812;9.112;2022-12-29T14:42:48;2.10;;;0.82;;
6809;SDS011;3443;48.812;9.112;2022-12-29T14:47:45;1.30;;;0.88;;
6809;SDS011;3443;48.812;9.112;2022-12-29T14:52:47;1.58;;;0.60;;
6809;SDS011;3443;48.812;9.112;2022-12-29T14:55:30;1.08;;;0.88;;
6809;SDS011;3443;48.812;9.112;2022-12-29T15:01:18;0.60;;;0.60;;
6809;SDS011;3443;48.812;9.112;2022-12-29T15:03:50;0.70;;;0.70;;
6809;SDS011;3443;48.812;9.112;2022-12-29T15:06:28;2.42;;;0.90;;
6809;SDS011;3443;48.812;9.112;2022-12-29T15:14:01;1.20;;;0.70;;
6809;SDS011;3443;48.812;9.112;2022-12-29T15:18:57;2.28;;;0.77;;
6809;SDS011;3443;48.812;9.112;2022-12-29T15:21:25;1.15;;;0.80;;
6809;SDS011;3443;48.812;9.112;2022-12-29T15:23:55;0.85;;;0.85;;
6809;SDS011;3443;48.812;9.112;2022-12-29T15:26:21;0.80;;;0.80;;
6809;SDS011;3443;48.812;9.112;2022-12-29T15:28:48;1.85;;;0.90;;
6809;SDS011;3443;48.812;9.112;2022-12-29T15:33:49;3.40;;;0.88;;
6809;SDS011;3443;48.812;9.112;2022-12-29T15:36:25;0.57;;;0.57;;
6809;SDS011;3443;48.812;9.112;2022-12-29T15:38:53;2.83;;;0.90;;
6809;SDS011;3443;48.812;9.112;2022-12-29T15:44:03;1.00;;;0.80;;
6809;SDS011;3443;48.812;9.112;2022-12-29T15:46:40;2.10;;;0.32;;
6809;SDS011;3443;48.812;9.112;2022-12-29T15:49:09;0.20;;;0.20;;
6809;SDS011;3443;48.812;9.112;2022-12-29T15:51:39;0.20;;;0.20;;
6809;SDS011;3443;48.812;9.112;2022-12-29T15:54:05;0.47;;;0.40;;
6809;SDS011;3443;48.812;9.112;2022-12-29T15:56:40;1.13;;;0.22;;
6809;SDS011;3443;48.812;9.112;2022-12-29T15:59:18;1.08;;;0.30;;
6809;SDS011;3443;48.812;9.112;2022-12-29T16:01:55;0.30;;;0.25;;
6809;SDS011;3443;48.812;9.112;2022-12-29T16:04:23;0.20;;;0.20;;
6809;SDS011;3443;48.812;9.112;2022-12-29T16:11:58;0.10;;;0.10;;
6809;SDS011;3443;48.812;9.112;2022-12-29T16:14:29;0.52;;;0.30;;
6809;SDS011;3443;48.812;9.112;2022-12-29T16:17:00;0.28;;;0.28;;
6809;SDS011;3443;48.812;9.112;2022-12-29T16:19:32;0.35;;;0.35;;
6809;SDS011;3443;48.812;9.112;2022-12-29T16:22:01;0.45;;;0.40;;
6809;SDS011;3443;48.812;9.112;2022-12-29T16:24:32;0.75;;;0.75;;
6809;SDS011;3443;48.812;9.112;2022-12-29T16:29:44;1.95;;;0.90;;
6809;SDS011;3443;48.812;9.112;2022-12-29T16:32:24;1.85;;;0.90;;
6809;SDS011;3443;48.812;9.112;2022-12-29T16:34:52;0.80;;;0.80;;
6809;SDS011;3443;48.812;9.112;2022-12-29T16:37:37;2.25;;;0.75;;
6809;SDS011;3443;48.812;9.112;2022-12-29T16:42:47;1.83;;;0.77;;
6809;SDS011;3443;48.812;9.112;2022-12-29T16:47:48;2.13;;;1.92;;
6809;SDS011;3443;48.812;9.112;2022-12-29T16:50:30;2.13;;;2.03;;
6809;SDS011;3443;48.812;9.112;2022-12-29T16:52:58;1.83;;;1.13;;
6809;SDS011;3443;48.812;9.112;2022-12-29T16:55:24;1.58;;;1.48;;
6809;SDS011;3443;48.812;9.112;2022-12-29T16:57:50;1.77;;;1.50;;
6809;SDS011;3443;48.812;9.112;2022-12-29T17:00:21;2.50;;;1.08;;
6809;SDS011;3443;48.812;9.112;2022-12-29T17:02:49;1.48;;;0.90;;
6809;SDS011;3443;48.812;9.112;2022-12-29T17:05:16;0.70;;;0.70;;
6809;SDS011;3443;48.812;9.112;2022-12-29T17:07:43;0.93;;;0.90;;
6809;SDS011;3443;48.812;9.112;2022-12-29T17:10:09;0.65;;;0.65;;
6809;SDS011;3443;48.812;9.112;2022-12-29T17:12:35;0.73;;;0.50;;
6809;SDS011;3443;48.812;9.112;2022-12-29T17:20:15;2.30;;;2.10;;
6809;SDS011;3443;48.812;9.112;2022-12-29T17:22:54;1.60;;;1.50;;
6809;SDS011;3443;48.812;9.112;2022-12-29T17:25:21;1.30;;;1.30;;
6809;SDS011;3443;48.812;9.112;2022-12-29T17:27:54;1.55;;;1.48;;
6809;SDS011;3443;48.812;9.112;2022-12-29T17:30:23;0.95;;;0.95;;
6809;SDS011;3443;48.812;9.112;2022-12-29T17:35:28;1.35;;;1.30;;
6809;SDS011;3443;48.812;9.112;2022-12-29T17:37:53;1.15;;;1.08;;
6809;SDS011;3443;48.812;9.112;2022-12-29T17:40:23;1.17;;;0.90;;
6809;SDS011;3443;48.812;9.112;2022-12-29T17:42:51;1.00;;;1.00;;
6809;SDS011;3443;48.812;9.112;2022-12-29T17:45:20;0.90;;;0.90;;
6809;SDS011;3443;48.812;9.112;2022-12-29T17:47:48;1.80;;;1.70;;
6809;SDS011;3443;48.812;9.112;2022-12-29T17:50:15;2.05;;;1.77;;
6809;SDS011;3443;48.812;9.112;2022-12-29T17:52:43;1.63;;;1.30;;
6809;SDS011;3443;48.812;9.112;2022-12-29T17:55:17;3.50;;;2.33;;
6809;SDS011;3443;48.812;9.112;2022-12-29T17:57:44;2.20;;;2.10;;
6809;SDS011;3443;48.812;9.112;2022-12-29T18:00:16;2.13;;;2.03;;
6809;SDS011;3443;48.812;9.112;2022-12-29T18:02:43;2.00;;;1.90;;
6809;SDS011;3443;48.812;9.112;2022-12-29T18:05:14;2.05;;;1.92;;
6809;SDS011;3443;48.812;9.112;2022-12-29T18:07:43;4.38;;;3.60;;
6809;SDS011;3443;48.812;9.112;2022-12-29T18:10:09;4.70;;;3.08;;
6809;SDS011;3443;48.812;9.112;2022-12-29T18:12:36;1.52;;;1.33;;
6809;SDS011;3443;48.812;9.112;2022-12-29T18:15:04;1.38;;;0.90;;
6809;SDS011;3443;48.812;9.112;2022-12-29T18:17:31;1.02;;;0.90;;
6809;SDS011;3443;48.812;9.112;2022-12-29T18:19:57;3.10;;;1.17;;
6809;SDS011;3443;48.812;9.112;2022-12-29T18:22:23;2.47;;;1.13;;